Boley, Oklahoma
Current Conditions -  °F | °C
As of 9:55 AM on Thursday 27 Nov 2014 (Local Time) from KCQB Reporting Station
Clear Clear  
Wind Chill: 34°   Ceiling: Unl
Heat Index: 37°   Visibility: 10mi
Dew Point: 30°   Wind: 5mph
Humidity: 75%   Direction: 90°E
Pressure: 30.57"   Gusts: NA
Location:  35.49°N, 96.48°W
Report Text: KCQB 271555Z AUTO 09004KT 10SM CLR 03/M01 A3057 RMK AO2
Loading
Personal Weather Stations






























Interactive Weather Map New forecast layout! Learn more

10-Day Weather Forecast

Advertisements
Track Severe Weather on mobile